Shun Cheng — BBUL — position and weather

sailwx.info

Track history (hours):
 
Tides and Currents Weather Stations Pressure Air Temp Water Temp Dewpoint Dewpoint Depression Visibility Wind Speed Wind Dir Waves Ship Positions

Shun Cheng

Last reported at 2015-Jan-28 09:31 UTC. Time now 2015-Jan-30 18:34 UTC.
Position N 32°17' E 119°51'.

Length 128 m; draft 7.1 m.

Type: Cargo ship. MMSI: 412949000.

Date/timePositionNaut miles runAvg speedWind from/ knotsBaromVisibWave heightAir tempDewpointWater temp
2015-Jan-28 09:31N 32°17' E 119°51'1010.8
2015-Jan-28 08:33N 32°08' E 119°55'1010.5
2015-Jan-28 07:33N 31°59' E 120°01'1110.8
2015-Jan-28 06:33N 31°56' E 120°13'10 9.8
2015-Jan-28 05:33N 32°01' E 120°23'7 7.1
2015-Jan-28 04:33N 32°04' E 120°31'8 7.8
2015-Jan-28 03:33N 31°60' E 120°38'10 9.7
2015-Jan-28 02:33N 31°60' E 120°50'1312.6
2015-Jan-28 01:33N 31°48' E 120°56'1111.4
2015-Jan-28 00:33N 31°43' E 121°08'1010.0
2015-Jan-27 23:33N 31°37' E 121°17'1111.2
2015-Jan-27 22:33N 31°29' E 121°26'1111.4
2015-Jan-27 21:33N 31°22' E 121°37'1111.4
2015-Jan-27 20:33N 31°15' E 121°47'1313.2
2015-Jan-27 19:33N 31°06' E 121°59'7 7.5
2015-Jan-27 18:34N 31°04' E 122°07'7 7.3
2015-Jan-27 17:33N 31°03' E 122°15'8 8.3
2015-Jan-27 16:34N 31°01' E 122°25'  
2015-Jan-24 11:33N 34°57' E 139°29'1413.5
2015-Jan-24 10:33N 35°06' E 139°41'1111.4
2015-Jan-24 09:34N 35°17' E 139°45'10 9.8
2015-Jan-24 08:33N 35°27' E 139°41'1 0.5
2015-Jan-24 07:34N 35°27' E 139°40'0 0.0
2015-Jan-24 06:32N 35°27' E 139°40'0 0.0
2015-Jan-24 05:32N 35°27' E 139°40'0 0.0
2015-Jan-24 04:32N 35°27' E 139°40'3 2.7
2015-Jan-24 03:34N 35°26' E 139°43'9 9.1
2015-Jan-24 02:34N 35°34' E 139°49'5 4.4
2015-Jan-24 01:32N 35°37' E 139°46'0 0.0
2015-Jan-24 00:26N 35°37' E 139°46'0 0.0
2015-Jan-23 23:32N 35°37' E 139°46'0 0.0
2015-Jan-23 22:32N 35°37' E 139°46'0 0.0
2015-Jan-23 21:29N 35°37' E 139°46'0 0.0
2015-Jan-23 20:29N 35°37' E 139°46'0 0.0
2015-Jan-23 19:23N 35°37' E 139°46'0 0.0
2015-Jan-23 18:23N 35°37' E 139°46'0 0.0
2015-Jan-23 17:23N 35°37' E 139°46'0 0.0
2015-Jan-23 16:32N 35°37' E 139°46'0 0.0
2015-Jan-23 15:17N 35°37' E 139°46'0 0.5
2015-Jan-23 14:33N 35°37' E 139°46'9 8.6
2015-Jan-23 13:30N 35°30' E 139°52'1111.5
2015-Jan-23 12:33N 35°21' E 139°45'1110.7
2015-Jan-23 11:33N 35°10' E 139°46'1212.0
2015-Jan-23 10:33N 35°01' E 139°37'1712.2
2015-Jan-23 09:12N 34°50' E 139°22'224 5.8
2015-Jan-21 18:20N 33°56' E 134°58'1013.6
2015-Jan-21 17:33N 34°06' E 134°59'1515.0
2015-Jan-21 16:33N 34°21' E 134°60'1414.4
2015-Jan-21 15:33N 34°31' E 135°13'8 8.5
2015-Jan-21 14:33N 34°40' E 135°14'0 0.0
2015-Jan-21 13:31N 34°40' E 135°14'0 0.0
2015-Jan-21 12:31N 34°40' E 135°14'0 0.0
2015-Jan-21 11:31N 34°40' E 135°14'0 0.0
2015-Jan-21 10:25N 34°40' E 135°14'0 0.0
2015-Jan-21 09:25N 34°40' E 135°14'0 0.5
2015-Jan-21 08:33N 34°40' E 135°15'6 5.7
2015-Jan-21 07:33N 34°37' E 135°21'5 4.5
2015-Jan-21 06:31N 34°39' E 135°26'0 0.0
2015-Jan-21 05:25N 34°39' E 135°26'0 0.0
2015-Jan-21 04:33N 34°39' E 135°26'4 3.8
2015-Jan-21 03:33N 34°37' E 135°21'7 7.0
2015-Jan-21 02:33N 34°33' E 135°15'10 9.6
2015-Jan-21 01:33N 34°26' E 135°07'10 9.8
2015-Jan-21 00:33N 34°18' E 134°60'1010.0
2015-Jan-20 23:33N 34°08' E 135°00'  
2015-Jan-18 16:32N 30°60' E 122°29'1414.7
2015-Jan-18 15:33N 31°03' E 122°12'1212.3
2015-Jan-18 14:33N 31°06' E 121°59'1111.1
2015-Jan-18 13:33N 31°13' E 121°48'1110.6
2015-Jan-18 12:33N 31°21' E 121°40'1110.8
2015-Jan-18 11:33N 31°26' E 121°29'1211.6
2015-Jan-18 10:33N 31°34' E 121°19'1413.7
2015-Jan-18 09:33N 31°43' E 121°07'  
Track history (hours):
 
Tides and Currents Weather Stations Pressure Air Temp Water Temp Dewpoint Dewpoint Depression Visibility Wind Speed Wind Dir Waves Ship Positions

Shun Cheng

Last reported at 2015-Jan-28 09:31 UTC. Time now 2015-Jan-30 18:34 UTC.
Position N 32°17' E 119°51'.

Length 128 m; draft 7.1 m.

Type: Cargo ship. MMSI: 412949000.

Date/timePositionNaut miles runAvg speedWind from/ knotsBaromVisibWave heightAir tempDewpointWater temp
2015-Jan-28 09:31N 32°17' E 119°51'1010.8
2015-Jan-28 08:33N 32°08' E 119°55'1010.5
2015-Jan-28 07:33N 31°59' E 120°01'1110.8
2015-Jan-28 06:33N 31°56' E 120°13'10 9.8
2015-Jan-28 05:33N 32°01' E 120°23'7 7.1
2015-Jan-28 04:33N 32°04' E 120°31'8 7.8
2015-Jan-28 03:33N 31°60' E 120°38'10 9.7
2015-Jan-28 02:33N 31°60' E 120°50'1312.6
2015-Jan-28 01:33N 31°48' E 120°56'1111.4
2015-Jan-28 00:33N 31°43' E 121°08'1010.0
2015-Jan-27 23:33N 31°37' E 121°17'1111.2
2015-Jan-27 22:33N 31°29' E 121°26'1111.4
2015-Jan-27 21:33N 31°22' E 121°37'1111.4
2015-Jan-27 20:33N 31°15' E 121°47'1313.2
2015-Jan-27 19:33N 31°06' E 121°59'7 7.5
2015-Jan-27 18:34N 31°04' E 122°07'7 7.3
2015-Jan-27 17:33N 31°03' E 122°15'8 8.3
2015-Jan-27 16:34N 31°01' E 122°25'  
2015-Jan-24 11:33N 34°57' E 139°29'1413.5
2015-Jan-24 10:33N 35°06' E 139°41'1111.4
2015-Jan-24 09:34N 35°17' E 139°45'10 9.8
2015-Jan-24 08:33N 35°27' E 139°41'1 0.5
2015-Jan-24 07:34N 35°27' E 139°40'0 0.0
2015-Jan-24 06:32N 35°27' E 139°40'0 0.0
2015-Jan-24 05:32N 35°27' E 139°40'0 0.0
2015-Jan-24 04:32N 35°27' E 139°40'3 2.7
2015-Jan-24 03:34N 35°26' E 139°43'9 9.1
2015-Jan-24 02:34N 35°34' E 139°49'5 4.4
2015-Jan-24 01:32N 35°37' E 139°46'0 0.0
2015-Jan-24 00:26N 35°37' E 139°46'0 0.0
2015-Jan-23 23:32N 35°37' E 139°46'0 0.0
2015-Jan-23 22:32N 35°37' E 139°46'0 0.0
2015-Jan-23 21:29N 35°37' E 139°46'0 0.0
2015-Jan-23 20:29N 35°37' E 139°46'0 0.0
2015-Jan-23 19:23N 35°37' E 139°46'0 0.0
2015-Jan-23 18:23N 35°37' E 139°46'0 0.0
2015-Jan-23 17:23N 35°37' E 139°46'0 0.0
2015-Jan-23 16:32N 35°37' E 139°46'0 0.0
2015-Jan-23 15:17N 35°37' E 139°46'0 0.5
2015-Jan-23 14:33N 35°37' E 139°46'9 8.6
2015-Jan-23 13:30N 35°30' E 139°52'1111.5
2015-Jan-23 12:33N 35°21' E 139°45'1110.7
2015-Jan-23 11:33N 35°10' E 139°46'1212.0
2015-Jan-23 10:33N 35°01' E 139°37'1712.2
2015-Jan-23 09:12N 34°50' E 139°22'224 5.8
2015-Jan-21 18:20N 33°56' E 134°58'1013.6
2015-Jan-21 17:33N 34°06' E 134°59'1515.0
2015-Jan-21 16:33N 34°21' E 134°60'1414.4
2015-Jan-21 15:33N 34°31' E 135°13'8 8.5
2015-Jan-21 14:33N 34°40' E 135°14'0 0.0
2015-Jan-21 13:31N 34°40' E 135°14'0 0.0
2015-Jan-21 12:31N 34°40' E 135°14'0 0.0
2015-Jan-21 11:31N 34°40' E 135°14'0 0.0
2015-Jan-21 10:25N 34°40' E 135°14'0 0.0
2015-Jan-21 09:25N 34°40' E 135°14'0 0.5
2015-Jan-21 08:33N 34°40' E 135°15'6 5.7
2015-Jan-21 07:33N 34°37' E 135°21'5 4.5
2015-Jan-21 06:31N 34°39' E 135°26'0 0.0
2015-Jan-21 05:25N 34°39' E 135°26'0 0.0
2015-Jan-21 04:33N 34°39' E 135°26'4 3.8
2015-Jan-21 03:33N 34°37' E 135°21'7 7.0
2015-Jan-21 02:33N 34°33' E 135°15'10 9.6
2015-Jan-21 01:33N 34°26' E 135°07'10 9.8
2015-Jan-21 00:33N 34°18' E 134°60'1010.0
2015-Jan-20 23:33N 34°08' E 135°00'  
2015-Jan-18 16:32N 30°60' E 122°29'1414.7
2015-Jan-18 15:33N 31°03' E 122°12'1212.3
2015-Jan-18 14:33N 31°06' E 121°59'1111.1
2015-Jan-18 13:33N 31°13' E 121°48'1110.6
2015-Jan-18 12:33N 31°21' E 121°40'1110.8
2015-Jan-18 11:33N 31°26' E 121°29'1211.6
2015-Jan-18 10:33N 31°34' E 121°19'1413.7
2015-Jan-18 09:33N 31°43' E 121°07'  

Dump ship's entire track history